createdAt,value
2018-05-08T00:00:32.536Z,0.00
2018-05-08T00:01:32.535Z,0.00
2018-05-08T00:02:32.536Z,0.00
2018-05-08T00:03:32.538Z,0.00
2018-05-08T00:04:32.538Z,0.00
2018-05-08T00:05:32.540Z,0.00
2018-05-08T00:06:32.540Z,0.00
2018-05-08T00:07:32.541Z,0.00
2018-05-08T00:08:32.541Z,0.00
2018-05-08T00:09:32.542Z,0.00
2018-05-08T00:10:32.541Z,0.00
2018-05-08T00:11:32.542Z,0.00
2018-05-08T00:12:32.543Z,0.00
2018-05-08T00:13:32.544Z,0.00
2018-05-08T00:14:32.545Z,0.00
2018-05-08T00:15:32.545Z,0.00
2018-05-08T00:16:32.548Z,0.00
2018-05-08T00:17:32.546Z,0.00
2018-05-08T00:18:32.547Z,0.00
2018-05-08T00:19:32.548Z,0.00
2018-05-08T00:20:32.549Z,0.00
2018-05-08T00:21:32.549Z,0.00
2018-05-08T00:22:32.549Z,0.00
2018-05-08T00:23:32.550Z,0.00
2018-05-08T00:24:32.551Z,0.00
2018-05-08T00:26:32.555Z,0.00
2018-05-08T00:27:32.553Z,0.00
2018-05-08T00:28:32.556Z,0.00
2018-05-08T00:29:32.554Z,0.00
2018-05-08T00:30:32.554Z,0.00
2018-05-08T00:31:32.554Z,0.00
2018-05-08T00:32:32.556Z,0.00
2018-05-08T00:33:32.553Z,0.00
2018-05-08T00:34:32.556Z,0.00
2018-05-08T00:35:32.556Z,0.00
2018-05-08T00:36:32.556Z,0.00
2018-05-08T00:37:32.557Z,0.00
2018-05-08T00:38:32.556Z,0.00
2018-05-08T00:39:32.561Z,0.00
2018-05-08T00:40:32.557Z,0.00
2018-05-08T00:41:32.559Z,0.00
2018-05-08T00:42:32.559Z,0.00
2018-05-08T00:43:32.559Z,0.00
2018-05-08T00:44:32.560Z,0.00
2018-05-08T00:45:32.560Z,0.00
2018-05-08T00:46:32.562Z,0.00
2018-05-08T00:47:32.559Z,0.00
2018-05-08T00:48:32.568Z,0.00
2018-05-08T00:49:32.562Z,0.00
2018-05-08T00:50:32.562Z,0.00
2018-05-08T00:51:32.562Z,0.00
2018-05-08T00:52:32.562Z,0.00
2018-05-08T00:53:32.560Z,0.00
2018-05-08T00:54:32.562Z,0.00
2018-05-08T00:55:32.562Z,0.00
2018-05-08T00:56:32.564Z,0.00
2018-05-08T00:57:32.565Z,0.00
2018-05-08T00:58:32.563Z,0.00
2018-05-08T00:59:32.564Z,0.00
2018-05-08T01:00:32.565Z,0.00
2018-05-08T01:01:32.565Z,0.00
2018-05-08T01:02:32.566Z,0.00
2018-05-08T01:03:32.565Z,0.00
2018-05-08T01:04:32.566Z,0.00
2018-05-08T01:05:32.565Z,0.00
2018-05-08T01:06:32.866Z,0.00
2018-05-08T01:07:32.566Z,0.00
2018-05-08T01:08:32.569Z,0.00
2018-05-08T01:09:32.567Z,0.00
2018-05-08T01:10:32.567Z,0.00
2018-05-08T01:11:32.602Z,0.00
2018-05-08T01:12:32.569Z,0.00
2018-05-08T01:13:32.568Z,0.00
2018-05-08T01:14:32.570Z,0.00
2018-05-08T01:15:32.570Z,0.00
2018-05-08T01:16:32.571Z,0.00
2018-05-08T01:17:32.570Z,0.00
2018-05-08T01:18:32.570Z,0.00
2018-05-08T01:19:32.571Z,0.00
2018-05-08T01:20:32.571Z,0.00
2018-05-08T01:21:32.574Z,0.00
2018-05-08T01:22:32.571Z,0.00
2018-05-08T01:23:32.570Z,0.00
2018-05-08T01:24:32.571Z,0.00
2018-05-08T01:25:32.570Z,0.00
2018-05-08T01:26:32.571Z,0.00
2018-05-08T01:27:32.573Z,0.00
2018-05-08T01:28:32.571Z,0.00
2018-05-08T01:29:32.572Z,0.00
2018-05-08T01:30:32.572Z,0.00
2018-05-08T01:31:32.578Z,0.00
2018-05-08T01:32:32.572Z,0.00
2018-05-08T01:33:32.571Z,0.00
2018-05-08T01:34:32.572Z,0.00
2018-05-08T01:35:32.573Z,0.00
2018-05-08T01:36:32.573Z,0.00
2018-05-08T01:37:32.571Z,0.00
2018-05-08T01:38:32.571Z,0.00
2018-05-08T01:39:32.571Z,0.00
2018-05-08T01:40:32.571Z,0.00
2018-05-08T01:41:32.572Z,0.00
2018-05-08T01:42:32.572Z,0.00
2018-05-08T01:43:32.570Z,0.00
2018-05-08T01:44:32.571Z,0.00
2018-05-08T01:45:32.572Z,0.00
2018-05-08T01:46:32.572Z,0.00
2018-05-08T01:47:32.571Z,0.00
2018-05-08T01:48:32.572Z,0.00
2018-05-08T01:49:32.571Z,0.00
2018-05-08T01:50:32.646Z,0.00
2018-05-08T01:51:32.576Z,0.00
2018-05-08T01:52:32.572Z,0.00
2018-05-08T01:53:32.572Z,0.00
2018-05-08T01:54:32.571Z,0.00
2018-05-08T01:55:32.572Z,0.00
2018-05-08T01:56:32.574Z,0.00
2018-05-08T01:57:32.571Z,0.00
2018-05-08T01:58:32.570Z,0.00
2018-05-08T01:59:32.571Z,0.00
2018-05-08T02:00:32.570Z,0.00
2018-05-08T02:01:32.629Z,0.00
2018-05-08T02:02:32.571Z,0.00
2018-05-08T02:03:32.570Z,0.00
2018-05-08T02:04:32.570Z,0.00
2018-05-08T02:05:32.571Z,0.00
2018-05-08T02:06:32.570Z,0.00
2018-05-08T02:07:32.570Z,0.00
2018-05-08T02:08:32.576Z,0.00
2018-05-08T02:09:32.569Z,0.00
2018-05-08T02:10:32.571Z,0.00
2018-05-08T02:11:32.570Z,0.00
2018-05-08T02:12:32.569Z,0.00
2018-05-08T02:13:32.569Z,0.00
2018-05-08T02:14:32.570Z,0.00
2018-05-08T02:15:32.569Z,0.00
2018-05-08T02:16:32.569Z,0.00
2018-05-08T02:17:32.569Z,0.00
2018-05-08T02:18:32.569Z,0.00
2018-05-08T02:19:32.570Z,0.00
2018-05-08T02:20:32.569Z,0.00
2018-05-08T02:21:32.567Z,0.00
2018-05-08T02:22:32.567Z,0.00
2018-05-08T02:23:32.580Z,0.00
2018-05-08T02:24:32.568Z,0.00
2018-05-08T02:25:32.567Z,0.00
2018-05-08T02:26:32.568Z,0.00
2018-05-08T02:27:32.567Z,0.00
2018-05-08T02:28:32.567Z,0.00
2018-05-08T02:29:32.566Z,0.00
2018-05-08T02:30:32.565Z,0.00
2018-05-08T02:31:32.567Z,0.00
2018-05-08T02:32:32.564Z,0.00
2018-05-08T02:33:32.570Z,0.00
2018-05-08T02:34:32.568Z,0.00
2018-05-08T02:35:32.565Z,0.00
2018-05-08T02:36:32.565Z,0.00
2018-05-08T02:37:32.571Z,0.00
2018-05-08T02:38:32.576Z,0.00
2018-05-08T02:39:32.564Z,0.00
2018-05-08T02:40:32.568Z,0.00
2018-05-08T02:41:32.563Z,0.00
2018-05-08T02:42:32.562Z,0.00
2018-05-08T02:43:32.562Z,0.00
2018-05-08T02:44:32.562Z,0.00
2018-05-08T02:45:32.561Z,0.00
2018-05-08T02:46:32.561Z,0.00
2018-05-08T02:47:32.561Z,0.00
2018-05-08T02:48:32.567Z,0.00
2018-05-08T02:49:32.557Z,0.00
2018-05-08T02:50:32.558Z,0.00
2018-05-08T02:51:32.563Z,0.00
2018-05-08T02:52:32.577Z,0.00
2018-05-08T02:53:32.557Z,0.00
2018-05-08T02:54:32.555Z,0.00
2018-05-08T02:55:32.560Z,0.00
2018-05-08T02:56:32.555Z,0.00
2018-05-08T02:57:32.555Z,0.00
2018-05-08T02:58:32.554Z,0.00
2018-05-08T02:59:32.555Z,0.00
2018-05-08T03:00:32.555Z,0.00
2018-05-08T03:01:32.553Z,0.00
2018-05-08T03:02:32.553Z,0.00
2018-05-08T03:03:32.553Z,0.00
2018-05-08T03:04:32.553Z,0.00
2018-05-08T03:05:32.551Z,0.00
2018-05-08T03:06:32.553Z,0.00
2018-05-08T03:07:32.550Z,0.00
2018-05-08T03:08:32.550Z,0.00
2018-05-08T03:09:32.549Z,0.00
2018-05-08T03:10:32.549Z,0.00
2018-05-08T03:11:32.548Z,0.00
2018-05-08T03:12:32.549Z,0.00
2018-05-08T03:13:32.546Z,0.00
2018-05-08T03:14:32.545Z,0.00
2018-05-08T03:15:32.545Z,0.00
2018-05-08T03:16:32.546Z,0.00
2018-05-08T03:17:32.543Z,0.00
2018-05-08T03:18:32.544Z,0.00
2018-05-08T03:19:32.543Z,0.00
2018-05-08T03:20:32.543Z,4.00
2018-05-08T03:21:32.542Z,4.00
2018-05-08T03:22:32.541Z,0.00
2018-05-08T03:23:32.540Z,0.00
2018-05-08T03:24:32.541Z,4.00
2018-05-08T03:25:32.540Z,4.00
2018-05-08T03:26:32.538Z,4.00
2018-05-08T03:27:32.538Z,4.00
2018-05-08T03:28:32.540Z,4.00
2018-05-08T03:29:32.536Z,8.00
2018-05-08T03:30:32.536Z,4.00
2018-05-08T03:31:32.536Z,4.00
2018-05-08T03:32:32.536Z,12.00
2018-05-08T03:33:32.534Z,12.00
2018-05-08T03:34:32.535Z,8.00
2018-05-08T03:35:32.532Z,12.00
2018-05-08T03:36:32.532Z,16.00
2018-05-08T03:37:32.531Z,16.00
2018-05-08T03:38:32.531Z,20.00
2018-05-08T03:39:32.530Z,24.00
2018-05-08T03:40:32.529Z,24.00
2018-05-08T03:41:32.536Z,28.00
2018-05-08T03:42:32.527Z,28.00
2018-05-08T03:43:32.526Z,36.00
2018-05-08T03:44:32.526Z,40.00
2018-05-08T03:45:32.525Z,44.00
2018-05-08T03:46:32.526Z,44.00
2018-05-08T03:47:32.524Z,52.00
2018-05-08T03:48:32.528Z,56.00
2018-05-08T03:49:32.523Z,64.00
2018-05-08T03:50:32.521Z,68.00
2018-05-08T03:51:32.520Z,72.00
2018-05-08T03:52:32.524Z,80.00
2018-05-08T03:53:32.519Z,84.00
2018-05-08T03:54:32.518Z,92.00
2018-05-08T03:55:32.518Z,100.00
2018-05-08T03:56:32.518Z,108.00
2018-05-08T03:57:32.517Z,116.00
2018-05-08T03:58:32.516Z,124.00
2018-05-08T03:59:32.514Z,132.00
2018-05-08T04:00:32.513Z,144.00
2018-05-08T04:01:32.512Z,152.00
2018-05-08T04:02:32.512Z,160.00
2018-05-08T04:03:32.511Z,168.00
2018-05-08T04:04:32.517Z,180.00
2018-05-08T04:05:32.510Z,188.00
2018-05-08T04:06:32.508Z,200.00
2018-05-08T04:07:32.507Z,208.00
2018-05-08T04:08:32.508Z,220.00
2018-05-08T04:09:32.506Z,228.00
2018-05-08T04:10:32.505Z,240.00
2018-05-08T04:11:32.506Z,252.00
2018-05-08T04:12:32.503Z,264.00
2018-05-08T04:13:32.502Z,276.00
2018-05-08T04:14:32.500Z,288.00
2018-05-08T04:15:32.571Z,296.00
2018-05-08T04:16:32.500Z,308.00
2018-05-08T04:17:32.499Z,324.00
2018-05-08T04:18:32.499Z,332.00
2018-05-08T04:19:32.497Z,344.00
2018-05-08T04:20:32.497Z,360.00
2018-05-08T04:21:32.499Z,372.00
2018-05-08T04:22:32.497Z,384.00
2018-05-08T04:23:32.495Z,396.00
2018-05-08T04:24:32.494Z,412.00
2018-05-08T04:25:32.492Z,420.00
2018-05-08T04:26:32.492Z,436.00
2018-05-08T04:27:32.491Z,448.00
2018-05-08T04:28:32.489Z,460.00
2018-05-08T04:29:32.488Z,476.00
2018-05-08T04:30:32.487Z,488.00
2018-05-08T04:31:32.488Z,500.00
2018-05-08T04:32:32.485Z,512.00
2018-05-08T04:33:32.484Z,528.00
2018-05-08T04:34:32.484Z,540.00
2018-05-08T04:35:32.483Z,552.00
2018-05-08T04:36:32.500Z,564.00
2018-05-08T04:37:32.481Z,580.00
2018-05-08T04:38:32.480Z,588.00
2018-05-08T04:39:32.484Z,600.00
2018-05-08T04:40:32.479Z,616.00
2018-05-08T04:41:32.478Z,628.00
2018-05-08T04:42:32.476Z,640.00
2018-05-08T04:43:32.477Z,652.00
2018-05-08T04:44:32.475Z,664.00
2018-05-08T04:45:32.475Z,684.00
2018-05-08T04:46:32.473Z,704.00
2018-05-08T04:47:32.476Z,720.00
2018-05-08T04:48:32.472Z,732.00
2018-05-08T04:49:32.472Z,752.00
2018-05-08T04:50:32.471Z,768.00
2018-05-08T04:51:32.471Z,792.00
2018-05-08T04:52:32.471Z,804.00
2018-05-08T04:53:32.469Z,832.00
2018-05-08T04:54:32.478Z,856.00
2018-05-08T04:55:32.467Z,876.00
2018-05-08T04:56:32.467Z,904.00
2018-05-08T04:57:32.465Z,924.00
2018-05-08T04:58:32.464Z,956.00
2018-05-08T04:59:32.465Z,968.00
2018-05-08T05:00:32.464Z,992.00
2018-05-08T05:01:32.462Z,1016.00
2018-05-08T05:02:32.463Z,1040.00
2018-05-08T05:03:32.462Z,1064.00
2018-05-08T05:04:32.461Z,1088.00
2018-05-08T05:05:32.461Z,1112.00
2018-05-08T05:06:32.459Z,1136.00
2018-05-08T05:07:32.459Z,1156.00
2018-05-08T05:08:32.460Z,1184.00
2018-05-08T05:09:32.459Z,1208.00
2018-05-08T05:10:32.457Z,1232.00
2018-05-08T05:11:32.457Z,1256.00
2018-05-08T05:12:32.457Z,1280.00
2018-05-08T05:13:32.455Z,1300.00
2018-05-08T05:14:32.456Z,1320.00
2018-05-08T05:15:32.455Z,1348.00
2018-05-08T05:16:32.455Z,1364.00
2018-05-08T05:17:32.453Z,1388.00
2018-05-08T05:18:32.455Z,1408.00
2018-05-08T05:19:32.454Z,1432.00
2018-05-08T05:20:32.454Z,1456.00
2018-05-08T05:21:32.453Z,1476.00
2018-05-08T05:22:32.454Z,1492.00
2018-05-08T05:23:32.453Z,1516.00
2018-05-08T05:24:32.467Z,1544.00
2018-05-08T05:25:32.459Z,1568.00
2018-05-08T05:26:32.452Z,1584.00
2018-05-08T05:27:32.453Z,1608.00
2018-05-08T05:28:32.453Z,1628.00
2018-05-08T05:29:32.459Z,1648.00
2018-05-08T05:30:32.451Z,1676.00
2018-05-08T05:31:32.466Z,1696.00
2018-05-08T05:32:32.452Z,1716.00
2018-05-08T05:33:32.451Z,1724.00
2018-05-08T05:34:32.451Z,1764.00
2018-05-08T05:35:32.452Z,1784.00
2018-05-08T05:36:32.452Z,1804.00
2018-05-08T05:37:32.454Z,1832.00
2018-05-08T05:38:32.451Z,1856.00
2018-05-08T05:39:32.451Z,1880.00
2018-05-08T05:40:32.452Z,1908.00
2018-05-08T05:41:32.451Z,1936.00
2018-05-08T05:42:32.455Z,1960.00
2018-05-08T05:43:32.452Z,1984.00
2018-05-08T05:44:32.452Z,2012.00
2018-05-08T05:45:32.454Z,2032.00
2018-05-08T05:46:32.451Z,2064.00
2018-05-08T05:47:32.453Z,2080.00
2018-05-08T05:48:32.453Z,2104.00
2018-05-08T05:49:32.452Z,2128.00
2018-05-08T05:50:32.453Z,2156.00
2018-05-08T05:51:32.460Z,2184.00
2018-05-08T05:52:32.452Z,2204.00
2018-05-08T05:53:32.453Z,2232.00
2018-05-08T05:54:32.451Z,2256.00
2018-05-08T05:55:32.454Z,2284.00
2018-05-08T05:56:32.455Z,2312.00
2018-05-08T05:57:32.453Z,2344.00
2018-05-08T05:58:32.506Z,2376.00
2018-05-08T05:59:32.482Z,2404.00
2018-05-08T06:00:32.502Z,2436.00
2018-05-08T06:01:32.542Z,2464.00
2018-05-08T06:02:32.455Z,2500.00
2018-05-08T06:03:32.455Z,2524.00
2018-05-08T06:04:32.461Z,2548.00
2018-05-08T06:05:32.454Z,2576.00
2018-05-08T06:06:32.550Z,2604.00
2018-05-08T06:07:32.455Z,2636.00
2018-05-08T06:08:32.456Z,2660.00
2018-05-08T06:09:32.454Z,2688.00
2018-05-08T06:10:32.456Z,2720.00
2018-05-08T06:11:32.477Z,2744.00
2018-05-08T06:12:32.458Z,2776.00
2018-05-08T06:13:32.456Z,2804.00
2018-05-08T06:14:32.457Z,2832.00
2018-05-08T06:15:32.457Z,2864.00
2018-05-08T06:16:32.458Z,2896.00
2018-05-08T06:17:32.462Z,2928.00
2018-05-08T06:18:32.458Z,2956.00
2018-05-08T06:19:32.460Z,2988.00
2018-05-08T06:20:32.459Z,3024.00
2018-05-08T06:21:32.460Z,3056.00
2018-05-08T06:22:32.461Z,3088.00
2018-05-08T06:23:32.462Z,3120.00
2018-05-08T06:24:32.462Z,3148.00
2018-05-08T06:25:32.462Z,3180.00
2018-05-08T06:26:32.472Z,3208.00
2018-05-08T06:27:32.468Z,3236.00
2018-05-08T06:28:32.762Z,3268.00
2018-05-08T06:29:32.466Z,3292.00
2018-05-08T06:30:32.840Z,3336.00
2018-05-08T06:31:32.468Z,3336.00
2018-05-08T06:32:32.469Z,3392.00
2018-05-08T06:33:32.469Z,3424.00
2018-05-08T06:34:32.471Z,3456.00
2018-05-08T06:35:32.470Z,3484.00
2018-05-08T06:36:32.473Z,3512.00
2018-05-08T06:37:32.472Z,3536.00
2018-05-08T06:38:32.475Z,3508.00
2018-05-08T06:39:32.550Z,3596.00
2018-05-08T06:40:32.476Z,3628.00
2018-05-08T06:41:32.480Z,3660.00
2018-05-08T06:42:32.477Z,3696.00
2018-05-08T06:43:32.478Z,3732.00
2018-05-08T06:44:32.481Z,3744.00
2018-05-08T06:45:32.605Z,3788.00
2018-05-08T06:46:32.498Z,3828.00
2018-05-08T06:47:32.486Z,3856.00
2018-05-08T06:48:32.485Z,3884.00
2018-05-08T06:49:32.754Z,3920.00
2018-05-08T06:50:32.602Z,3948.00
2018-05-08T06:51:32.488Z,3992.00
2018-05-08T06:52:32.491Z,4028.00
2018-05-08T06:53:32.491Z,4068.00
2018-05-08T06:54:32.493Z,4108.00
2018-05-08T06:55:32.495Z,4144.00
2018-05-08T06:56:32.495Z,4184.00
2018-05-08T06:57:32.500Z,4232.00
2018-05-08T06:58:32.499Z,4420.00
2018-05-08T06:59:32.502Z,23968.00
2018-05-08T07:00:32.506Z,59776.00
2018-05-08T07:01:32.505Z,84416.00
2018-05-08T07:02:32.507Z,81056.00
2018-05-08T07:03:32.513Z,82944.00
2018-05-08T07:04:32.517Z,88384.00
2018-05-08T07:05:32.552Z,81536.00
2018-05-08T07:06:32.617Z,76160.00
2018-05-08T07:07:32.534Z,85728.00
2018-05-08T07:08:32.540Z,84512.00
2018-05-08T07:09:32.549Z,81088.00
2018-05-08T07:10:32.606Z,58656.00
2018-05-08T07:11:32.564Z,28384.00
2018-05-08T07:12:32.569Z,27904.00
2018-05-08T07:13:32.578Z,19072.00
2018-05-08T07:14:32.585Z,9580.00
2018-05-08T07:15:32.593Z,5788.00
2018-05-08T07:16:32.602Z,7240.00
2018-05-08T07:17:32.607Z,5700.00
2018-05-08T07:18:32.617Z,6696.00
2018-05-08T07:19:32.621Z,8204.00
2018-05-08T07:20:32.629Z,11520.00
2018-05-08T07:21:32.634Z,5840.00
2018-05-08T07:22:32.641Z,14244.00
2018-05-08T07:23:32.647Z,30528.00
2018-05-08T07:24:32.653Z,32416.00
2018-05-08T07:25:32.660Z,17152.00
2018-05-08T07:26:32.665Z,22080.00
2018-05-08T07:27:32.857Z,23648.00
2018-05-08T07:28:32.749Z,22080.00
2018-05-08T07:29:32.684Z,10376.00
2018-05-08T07:30:32.690Z,8000.00
2018-05-08T07:31:32.699Z,12744.00
2018-05-08T07:32:32.703Z,15008.00
2018-05-08T07:33:32.708Z,34080.00
2018-05-08T07:34:32.714Z,33536.00
2018-05-08T07:35:32.882Z,14536.00
2018-05-08T07:36:32.734Z,10872.00
2018-05-08T07:37:32.733Z,21088.00
2018-05-08T07:38:32.743Z,28832.00
2018-05-08T07:39:32.747Z,16416.00
2018-05-08T07:40:32.754Z,12288.00
2018-05-08T07:41:32.914Z,11368.00
2018-05-08T07:42:32.764Z,5732.00
2018-05-08T07:43:32.769Z,6924.00
2018-05-08T07:44:32.776Z,6828.00
2018-05-08T07:45:32.928Z,6688.00
2018-05-08T07:46:32.788Z,15584.00
2018-05-08T07:47:32.793Z,28736.00
2018-05-08T07:48:32.993Z,33280.00
2018-05-08T07:49:33.263Z,31104.00
2018-05-08T07:50:33.053Z,32544.00
2018-05-08T07:51:33.071Z,25600.00
2018-05-08T07:52:32.824Z,54336.00
2018-05-08T07:53:32.831Z,56832.00
2018-05-08T07:54:32.920Z,43968.00
2018-05-08T07:55:32.846Z,42368.00
2018-05-08T07:56:32.853Z,49472.00
2018-05-08T07:57:32.949Z,43296.00
2018-05-08T07:58:32.870Z,37600.00
2018-05-08T07:59:33.294Z,64128.00
2018-05-08T08:00:32.888Z,71744.00
2018-05-08T08:01:32.894Z,69088.00
2018-05-08T08:02:32.904Z,68192.00
2018-05-08T08:03:32.916Z,67968.00
2018-05-08T08:04:32.998Z,69664.00
2018-05-08T08:05:32.936Z,68608.00
2018-05-08T08:06:32.948Z,64288.00
2018-05-08T08:07:32.964Z,65600.00
2018-05-08T08:08:32.972Z,9696.00
2018-05-08T08:09:32.985Z,25312.00
2018-05-08T08:10:32.996Z,63296.00
2018-05-08T08:11:33.019Z,62400.00
2018-05-08T08:12:33.021Z,61728.00
2018-05-08T08:13:33.032Z,61024.00
2018-05-08T08:14:33.046Z,64640.00
2018-05-08T08:15:33.359Z,40224.00
2018-05-08T08:16:33.151Z,30048.00
2018-05-08T08:17:33.091Z,26880.00
2018-05-08T08:18:33.115Z,38848.00
2018-05-08T08:19:33.476Z,59136.00
2018-05-08T08:20:33.122Z,50912.00
2018-05-08T08:21:33.133Z,35712.00
2018-05-08T08:22:33.143Z,13408.00
2018-05-08T08:23:33.166Z,29632.00
2018-05-08T08:24:33.172Z,33920.00
2018-05-08T08:25:33.178Z,43808.00
2018-05-08T08:26:33.190Z,30912.00
2018-05-08T08:27:33.203Z,32224.00
2018-05-08T08:28:33.214Z,49408.00
2018-05-08T08:29:33.225Z,57152.00
2018-05-08T08:30:33.238Z,52896.00
2018-05-08T08:31:33.251Z,54912.00
2018-05-08T08:32:33.264Z,56352.00
2018-05-08T08:33:33.564Z,65792.00
2018-05-08T08:34:33.290Z,62624.00
2018-05-08T08:35:33.306Z,57088.00
2018-05-08T08:36:33.318Z,59936.00
2018-05-08T08:37:33.331Z,61088.00
2018-05-08T08:38:33.346Z,59616.00
2018-05-08T08:39:33.361Z,60960.00
2018-05-08T08:40:33.375Z,59072.00
2018-05-08T08:41:33.389Z,54656.00
2018-05-08T08:42:33.405Z,53280.00
2018-05-08T08:43:33.425Z,59264.00
2018-05-08T08:44:33.435Z,58240.00
2018-05-08T08:45:33.450Z,60064.00
2018-05-08T08:46:33.521Z,57792.00
2018-05-08T08:47:33.486Z,51552.00
2018-05-08T08:48:33.496Z,53344.00
2018-05-08T08:49:33.513Z,56512.00
2018-05-08T08:50:33.528Z,56064.00
2018-05-08T08:51:33.543Z,55712.00
2018-05-08T08:52:33.559Z,57568.00
2018-05-08T08:53:33.574Z,56736.00
2018-05-08T08:54:33.590Z,57472.00
2018-05-08T08:55:33.609Z,54912.00
2018-05-08T08:56:33.624Z,53408.00
2018-05-08T08:57:33.638Z,53728.00
2018-05-08T08:58:33.654Z,54144.00
2018-05-08T08:59:33.670Z,57344.00
2018-05-08T09:00:33.685Z,58176.00
2018-05-08T09:01:33.698Z,54560.00
2018-05-08T09:02:33.715Z,55104.00
2018-05-08T09:03:33.729Z,51936.00
2018-05-08T09:04:33.746Z,50976.00
2018-05-08T09:05:33.768Z,52480.00
2018-05-08T09:06:33.775Z,58720.00
2018-05-08T09:07:33.791Z,58688.00
2018-05-08T09:08:33.807Z,53440.00
2018-05-08T09:09:33.821Z,52288.00
2018-05-08T09:10:33.836Z,54688.00
2018-05-08T09:11:33.879Z,53504.00
2018-05-08T09:12:33.866Z,52832.00
2018-05-08T09:13:33.892Z,51008.00
2018-05-08T09:14:33.896Z,51936.00
2018-05-08T09:15:33.910Z,49312.00
2018-05-08T09:16:33.926Z,45888.00
2018-05-08T09:17:33.939Z,46400.00
2018-05-08T09:18:33.955Z,48256.00
2018-05-08T09:19:33.971Z,47584.00
2018-05-08T09:20:34.255Z,45920.00
2018-05-08T09:21:33.998Z,46304.00
2018-05-08T09:22:34.462Z,44608.00
2018-05-08T09:23:34.303Z,41632.00
2018-05-08T09:24:34.550Z,42144.00
2018-05-08T09:25:34.065Z,43552.00
2018-05-08T09:26:34.071Z,41152.00
2018-05-08T09:27:34.098Z,37664.00
2018-05-08T09:28:34.101Z,36960.00
2018-05-08T09:29:34.113Z,36928.00
2018-05-08T09:30:34.309Z,40192.00
2018-05-08T09:31:34.145Z,41568.00
2018-05-08T09:32:34.159Z,36928.00
2018-05-08T09:33:34.170Z,36224.00
2018-05-08T09:34:34.183Z,38528.00
2018-05-08T09:35:34.274Z,37440.00
2018-05-08T09:36:34.214Z,36128.00
2018-05-08T09:37:34.227Z,35552.00
2018-05-08T09:38:34.240Z,35616.00
2018-05-08T09:39:34.255Z,34304.00
2018-05-08T09:40:34.517Z,33440.00
2018-05-08T09:41:34.282Z,35136.00
2018-05-08T09:42:34.296Z,30912.00
2018-05-08T09:43:34.314Z,30496.00
2018-05-08T09:44:34.324Z,30880.00
2018-05-08T09:45:34.610Z,29856.00
2018-05-08T09:46:34.855Z,29280.00
2018-05-08T09:47:34.366Z,25632.00
2018-05-08T09:48:34.380Z,25920.00
2018-05-08T09:49:34.403Z,25824.00
2018-05-08T09:50:34.406Z,24960.00
2018-05-08T09:51:34.420Z,26112.00
2018-05-08T09:52:34.435Z,26080.00
2018-05-08T09:53:34.449Z,23808.00
2018-05-08T09:54:34.492Z,22144.00
2018-05-08T09:55:34.475Z,21056.00
2018-05-08T09:56:34.490Z,22400.00
2018-05-08T09:57:34.502Z,23488.00
2018-05-08T09:58:34.831Z,24000.00
2018-05-08T09:59:34.797Z,24736.00
2018-05-08T10:00:34.811Z,21536.00
2018-05-08T10:01:34.831Z,24704.00
2018-05-08T10:02:34.570Z,22784.00
2018-05-08T10:03:34.608Z,18784.00
2018-05-08T10:04:34.597Z,19424.00
2018-05-08T10:05:34.700Z,18176.00
2018-05-08T10:06:34.723Z,18272.00
2018-05-08T10:07:34.642Z,18784.00
2018-05-08T10:08:34.654Z,18656.00
2018-05-08T10:09:34.669Z,18112.00
2018-05-08T10:10:34.680Z,18752.00
2018-05-08T10:11:34.694Z,20160.00
2018-05-08T10:12:34.708Z,20128.00
2018-05-08T10:13:34.722Z,19296.00
2018-05-08T10:14:34.738Z,18560.00
2018-05-08T10:15:34.749Z,22656.00
2018-05-08T10:16:34.768Z,24352.00
2018-05-08T10:17:34.777Z,14720.00
2018-05-08T10:18:34.790Z,9676.00
2018-05-08T10:19:34.803Z,8796.00
2018-05-08T10:20:34.873Z,8364.00
2018-05-08T10:21:34.831Z,8244.00
2018-05-08T10:22:34.845Z,8188.00
2018-05-08T10:23:34.859Z,8188.00
2018-05-08T10:24:34.872Z,8104.00
2018-05-08T10:25:34.885Z,8028.00
2018-05-08T10:26:34.899Z,7928.00
2018-05-08T10:27:34.915Z,7820.00
2018-05-08T10:28:34.927Z,7780.00
2018-05-08T10:29:34.941Z,7764.00
2018-05-08T10:30:34.955Z,7728.00
2018-05-08T10:31:34.968Z,7708.00
2018-05-08T10:32:34.981Z,7596.00
2018-05-08T10:33:34.994Z,7576.00
2018-05-08T10:34:35.008Z,7552.00
2018-05-08T10:35:35.024Z,7500.00
2018-05-08T10:36:35.035Z,7472.00
2018-05-08T10:37:35.047Z,7416.00
2018-05-08T10:38:35.060Z,7392.00
2018-05-08T10:39:35.073Z,7328.00
2018-05-08T10:40:35.157Z,7316.00
2018-05-08T10:41:35.099Z,7296.00
2018-05-08T10:42:35.111Z,7324.00
2018-05-08T10:43:35.125Z,7344.00
2018-05-08T10:44:35.137Z,7336.00
2018-05-08T10:45:35.153Z,7324.00
2018-05-08T10:46:35.162Z,7280.00
2018-05-08T10:47:35.472Z,7256.00
2018-05-08T10:48:35.482Z,7284.00
2018-05-08T10:49:35.505Z,7328.00
2018-05-08T10:50:35.481Z,7380.00
2018-05-08T10:51:35.225Z,7420.00
2018-05-08T10:52:35.240Z,7452.00
2018-05-08T10:53:35.576Z,7432.00
2018-05-08T10:54:35.495Z,7456.00
2018-05-08T10:55:35.283Z,7432.00
2018-05-08T10:56:35.288Z,7436.00
2018-05-08T10:57:35.307Z,7456.00
2018-05-08T10:58:35.355Z,7452.00
2018-05-08T10:59:35.346Z,7468.00
2018-05-08T11:00:35.339Z,7488.00
2018-05-08T11:01:35.423Z,7456.00
2018-05-08T11:02:35.376Z,7480.00
2018-05-08T11:03:35.378Z,7508.00
2018-05-08T11:04:35.449Z,7556.00
2018-05-08T11:05:35.438Z,7544.00
2018-05-08T11:06:35.414Z,7608.00
2018-05-08T11:07:35.426Z,7652.00
2018-05-08T11:08:35.439Z,7692.00
2018-05-08T11:09:35.452Z,7700.00
2018-05-08T11:10:35.468Z,7736.00
2018-05-08T11:11:35.478Z,7784.00
2018-05-08T11:12:35.496Z,7900.00
2018-05-08T11:13:35.504Z,8032.00
2018-05-08T11:14:35.516Z,8092.00
2018-05-08T11:15:35.529Z,8012.00
2018-05-08T11:16:35.553Z,7980.00
2018-05-08T11:17:35.555Z,7904.00
2018-05-08T11:18:35.566Z,7784.00
2018-05-08T11:19:35.608Z,7720.00
2018-05-08T11:20:35.590Z,7688.00
2018-05-08T11:21:35.607Z,7760.00
2018-05-08T11:22:36.240Z,7804.00
2018-05-08T11:23:35.629Z,7816.00
2018-05-08T11:24:35.642Z,7796.00
2018-05-08T11:25:35.656Z,7792.00
2018-05-08T11:26:35.713Z,7752.00
2018-05-08T11:27:35.680Z,7728.00
2018-05-08T11:28:35.694Z,7732.00
2018-05-08T11:29:35.705Z,7720.00
2018-05-08T11:30:35.720Z,7720.00
2018-05-08T11:31:35.731Z,7764.00
2018-05-08T11:32:35.744Z,7804.00
2018-05-08T11:33:35.757Z,7792.00
2018-05-08T11:34:35.771Z,7772.00
2018-05-08T11:35:35.784Z,7768.00
2018-05-08T11:36:35.797Z,7784.00
2018-05-08T11:37:35.811Z,7800.00
2018-05-08T11:38:35.823Z,7844.00
2018-05-08T11:39:35.839Z,7900.00
2018-05-08T11:40:35.847Z,7908.00
2018-05-08T11:41:35.862Z,7880.00
2018-05-08T11:42:35.874Z,7876.00
2018-05-08T11:43:35.904Z,7880.00
2018-05-08T11:44:35.930Z,7920.00
2018-05-08T11:45:35.912Z,7996.00
2018-05-08T11:46:35.924Z,8084.00
2018-05-08T11:47:35.938Z,8108.00
2018-05-08T11:48:35.954Z,8124.00
2018-05-08T11:49:35.963Z,8168.00
2018-05-08T11:50:35.977Z,8144.00
2018-05-08T11:51:35.988Z,8196.00
2018-05-08T11:52:35.997Z,8228.00
2018-05-08T11:53:36.009Z,8324.00
2018-05-08T11:54:36.025Z,8464.00
2018-05-08T11:55:36.037Z,8532.00
2018-05-08T11:56:36.046Z,8636.00
2018-05-08T11:57:36.057Z,8556.00
2018-05-08T11:58:36.069Z,8436.00
2018-05-08T11:59:36.085Z,8432.00
2018-05-08T12:00:36.095Z,8428.00
2018-05-08T12:01:36.105Z,8400.00
2018-05-08T12:02:36.181Z,8464.00
2018-05-08T12:03:36.134Z,8416.00
2018-05-08T12:04:36.142Z,8396.00
2018-05-08T12:05:36.152Z,8360.00
2018-05-08T12:06:36.165Z,8336.00
2018-05-08T12:07:36.177Z,8352.00
2018-05-08T12:08:36.190Z,8376.00
2018-05-08T12:09:36.201Z,8400.00
2018-05-08T12:10:36.213Z,8396.00
2018-05-08T12:11:36.378Z,8344.00
2018-05-08T12:12:36.240Z,8292.00
2018-05-08T12:13:36.250Z,8304.00
2018-05-08T12:14:36.292Z,8296.00
2018-05-08T12:15:36.275Z,8288.00
2018-05-08T12:16:36.287Z,8292.00
2018-05-08T12:17:36.297Z,8272.00
2018-05-08T12:18:36.311Z,8248.00
2018-05-08T12:19:36.572Z,8208.00
2018-05-08T12:20:36.335Z,8180.00
2018-05-08T12:21:36.345Z,8168.00
2018-05-08T12:22:36.357Z,8152.00
2018-05-08T12:23:36.444Z,8164.00